• Join FlightAware (Why Join?)
  • Login
  • US Flag 
08:54PM EDT


 

Airport Tracker/Info


-or-


 

Live Flight TrackerFlight Track Log ✈ ASQ5678 ✈ 16-Aug-2013 ✈ KIAH - KLFT

Flight Track Log - Related Links

Times and Time Zones

All times are in EDT time to prevent confusion due to time zone crossing. See the ASQ5678 flight status page for this flight to view local times or setup timezone preferences in your user account.

Time Position Orientation Groundspeed Altitude Reporting Facility
EDT Latitude Longitude Course Direction KTS MPH feet Rate Location/Type
02:11PM 29.9661 -95.3456 90° East 168 193 500  Level Houston Center
02:12PM 29.9242 -95.3000 137° Southeast 238 274 1,900 1,560 Climbing Houston Center
02:13PM 29.8986 -95.2625 128° Southeast 238 274 3,200 1,200 Climbing Houston Center
02:14PM 29.8486 -95.1975 132° Southeast 257 296 4,000 1,200 Climbing Houston Center
02:15PM 29.9834 -94.9119 90° East  Level FlightAware Approximate
02:15PM 29.8153 -95.1233 117° Southeast 277 319 5,700  Level Houston Center
02:16PM 29.9834 -94.8065 90° East  Level FlightAware Approximate
02:16PM 29.8331 -95.0389 76° East 271 312 8,100  Level Houston Center
02:17PM 29.8569 -94.9306 76° East 284 327 10,500 1,560 Climbing Houston Center
02:18PM 29.8806 -94.8289 75° East 317 365 11,400 1,080 Climbing Houston Center
02:19PM 29.9050 -94.7161 76° East 354 407 12,800 1,320 Climbing Houston Center
02:20PM 29.9306 -94.6019 75° East 365 420 14,200 1,200 Climbing Houston Center
02:21PM 29.9561 -94.4847 76° East 374 430 15,300 960 Climbing Houston Center
02:22PM 29.9819 -94.3664 76° East 385 443 16,300 1,080 Climbing Houston Center
02:23PM 30.0064 -94.2203 79° East 386 444 17,600 1,140 Climbing Houston Center
02:24PM 30.0222 -94.0950 82° East 394 453 18,700 1,020 Climbing Houston Center
02:25PM 30.0378 -93.9703 82° East 394 453 19,800 1,020 Climbing Houston Center
02:26PM 30.0536 -93.8442 82° East 399 459 20,900 1,020 Climbing Houston Center
02:27PM 30.0694 -93.7158 82° East 403 464 22,000 960 Climbing Houston Center
02:28PM 30.0875 -93.5600 82° East 410 472 23,000 480 Climbing Houston Center
02:29PM 30.1033 -93.4228 82° East 435 501 23,000  Level Houston Center
02:30PM 30.1203 -93.2794 82° East 455 524 23,000 -660 Level Houston Center
02:31PM 30.1378 -93.1328 82° East 465 535 21,700 -1,800 Descending Houston Center
02:32PM 30.1472 -92.9600 86° East 452 520 19,300 -2,280 Descending Houston Center
02:33PM 30.1550 -92.8275 86° East 422 486 17,000 -2,400 Descending Houston Center
02:34PM 30.1622 -92.6975 86° East 410 472 14,400 -2,220 Descending Houston Center
02:36PM 30.1681 -92.5775 87° East 383 441 12,500 -1,740 Descending Houston Center
02:37PM 30.1719 -92.4758 87° East 326 375 10,900 -2,040 Descending Houston Center
02:38PM 30.1619 -92.3825 97° East 308 354 8,400 -2,580 Descending Houston Center
02:39PM 30.1231 -92.2831 114° Southeast 287 330 5,600 -2,400 Descending Houston Center
02:40PM 30.0897 -92.2036 116° Southeast 278 320 3,500 -1,440 Descending Houston Center
02:41PM 30.0825 -92.1294 96° East 251 289 2,600 -900 Descending Houston Center